sensor_id;sensor_type;location;lat;lon;timestamp;P1;durP1;ratioP1;P2;durP2;ratioP2
26311;SDS011;14019;56.964;24.016;2023-12-20T00:01:59;21.73;;;2.17;;
26311;SDS011;14019;56.964;24.016;2023-12-20T00:04:46;12.82;;;1.70;;
26311;SDS011;14019;56.964;24.016;2023-12-20T00:07:32;14.90;;;2.25;;
26311;SDS011;14019;56.964;24.016;2023-12-20T00:10:19;18.27;;;2.20;;
26311;SDS011;14019;56.964;24.016;2023-12-20T00:13:05;13.05;;;2.08;;
26311;SDS011;14019;56.964;24.016;2023-12-20T00:15:52;11.23;;;1.75;;
26311;SDS011;14019;56.964;24.016;2023-12-20T00:18:39;12.10;;;2.00;;
26311;SDS011;14019;56.964;24.016;2023-12-20T00:21:26;12.48;;;1.95;;
26311;SDS011;14019;56.964;24.016;2023-12-20T00:24:12;9.40;;;1.80;;
26311;SDS011;14019;56.964;24.016;2023-12-20T00:26:58;12.88;;;2.65;;
26311;SDS011;14019;56.964;24.016;2023-12-20T00:29:44;13.70;;;2.28;;
26311;SDS011;14019;56.964;24.016;2023-12-20T00:32:33;12.40;;;2.22;;
26311;SDS011;14019;56.964;24.016;2023-12-20T00:35:19;11.98;;;1.90;;
26311;SDS011;14019;56.964;24.016;2023-12-20T00:38:05;17.30;;;2.10;;
26311;SDS011;14019;56.964;24.016;2023-12-20T00:40:52;12.10;;;2.15;;
26311;SDS011;14019;56.964;24.016;2023-12-20T00:43:38;15.75;;;2.22;;
26311;SDS011;14019;56.964;24.016;2023-12-20T00:46:25;19.45;;;2.03;;
26311;SDS011;14019;56.964;24.016;2023-12-20T00:49:11;19.10;;;2.35;;
26311;SDS011;14019;56.964;24.016;2023-12-20T00:51:57;14.88;;;2.10;;
26311;SDS011;14019;56.964;24.016;2023-12-20T00:54:44;11.98;;;2.10;;
26311;SDS011;14019;56.964;24.016;2023-12-20T00:57:31;15.23;;;1.90;;
26311;SDS011;14019;56.964;24.016;2023-12-20T01:00:18;14.27;;;2.20;;
26311;SDS011;14019;56.964;24.016;2023-12-20T01:03:04;15.27;;;2.13;;
26311;SDS011;14019;56.964;24.016;2023-12-20T01:05:51;13.77;;;1.95;;
26311;SDS011;14019;56.964;24.016;2023-12-20T01:08:37;11.63;;;1.92;;
26311;SDS011;14019;56.964;24.016;2023-12-20T01:11:23;9.52;;;1.73;;
26311;SDS011;14019;56.964;24.016;2023-12-20T01:14:10;17.38;;;2.13;;
26311;SDS011;14019;56.964;24.016;2023-12-20T01:16:57;12.80;;;1.98;;
26311;SDS011;14019;56.964;24.016;2023-12-20T01:19:44;18.10;;;2.47;;
26311;SDS011;14019;56.964;24.016;2023-12-20T01:22:30;14.52;;;2.00;;
26311;SDS011;14019;56.964;24.016;2023-12-20T01:25:16;16.30;;;2.13;;
26311;SDS011;14019;56.964;24.016;2023-12-20T01:28:03;15.35;;;2.22;;
26311;SDS011;14019;56.964;24.016;2023-12-20T01:30:50;12.95;;;2.42;;
26311;SDS011;14019;56.964;24.016;2023-12-20T01:33:36;19.80;;;2.38;;
26311;SDS011;14019;56.964;24.016;2023-12-20T01:36:23;19.35;;;2.05;;
26311;SDS011;14019;56.964;24.016;2023-12-20T01:39:09;12.60;;;1.92;;
26311;SDS011;14019;56.964;24.016;2023-12-20T01:42:09;7.65;;;1.75;;
26311;SDS011;14019;56.964;24.016;2023-12-20T01:44:55;19.45;;;1.92;;
26311;SDS011;14019;56.964;24.016;2023-12-20T01:47:42;13.45;;;2.00;;
26311;SDS011;14019;56.964;24.016;2023-12-20T01:50:29;9.65;;;2.10;;
26311;SDS011;14019;56.964;24.016;2023-12-20T01:53:17;11.75;;;2.00;;
26311;SDS011;14019;56.964;24.016;2023-12-20T01:56:04;13.30;;;2.20;;
26311;SDS011;14019;56.964;24.016;2023-12-20T01:58:51;16.23;;;1.95;;
26311;SDS011;14019;56.964;24.016;2023-12-20T02:01:37;12.25;;;1.88;;
26311;SDS011;14019;56.964;24.016;2023-12-20T02:04:24;12.23;;;1.75;;
26311;SDS011;14019;56.964;24.016;2023-12-20T02:07:11;12.98;;;1.92;;
26311;SDS011;14019;56.964;24.016;2023-12-20T02:09:58;14.45;;;1.90;;
26311;SDS011;14019;56.964;24.016;2023-12-20T02:12:44;15.63;;;1.75;;
26311;SDS011;14019;56.964;24.016;2023-12-20T02:15:30;11.00;;;2.13;;
26311;SDS011;14019;56.964;24.016;2023-12-20T02:18:17;14.88;;;1.95;;
26311;SDS011;14019;56.964;24.016;2023-12-20T02:21:04;15.45;;;1.92;;
26311;SDS011;14019;56.964;24.016;2023-12-20T02:23:54;17.60;;;1.98;;
26311;SDS011;14019;56.964;24.016;2023-12-20T02:26:40;14.13;;;1.67;;
26311;SDS011;14019;56.964;24.016;2023-12-20T02:29:31;13.20;;;1.83;;
26311;SDS011;14019;56.964;24.016;2023-12-20T02:32:18;14.23;;;1.73;;
26311;SDS011;14019;56.964;24.016;2023-12-20T02:35:05;12.15;;;2.10;;
26311;SDS011;14019;56.964;24.016;2023-12-20T02:37:51;19.23;;;2.15;;
26311;SDS011;14019;56.964;24.016;2023-12-20T02:40:37;17.83;;;2.13;;
26311;SDS011;14019;56.964;24.016;2023-12-20T02:43:24;10.70;;;1.70;;
26311;SDS011;14019;56.964;24.016;2023-12-20T02:46:10;11.48;;;2.03;;
26311;SDS011;14019;56.964;24.016;2023-12-20T02:48:57;16.10;;;1.90;;
26311;SDS011;14019;56.964;24.016;2023-12-20T02:51:43;12.95;;;1.95;;
26311;SDS011;14019;56.964;24.016;2023-12-20T02:54:30;16.52;;;2.20;;
26311;SDS011;14019;56.964;24.016;2023-12-20T02:57:16;13.07;;;2.00;;
26311;SDS011;14019;56.964;24.016;2023-12-20T03:00:03;12.43;;;1.83;;
26311;SDS011;14019;56.964;24.016;2023-12-20T03:02:49;18.13;;;2.25;;
26311;SDS011;14019;56.964;24.016;2023-12-20T03:05:35;11.82;;;1.42;;
26311;SDS011;14019;56.964;24.016;2023-12-20T03:08:22;17.55;;;2.10;;
26311;SDS011;14019;56.964;24.016;2023-12-20T03:11:08;9.95;;;1.80;;
26311;SDS011;14019;56.964;24.016;2023-12-20T03:13:55;14.32;;;1.95;;
26311;SDS011;14019;56.964;24.016;2023-12-20T03:16:41;17.52;;;2.20;;
26311;SDS011;14019;56.964;24.016;2023-12-20T03:19:27;11.90;;;1.70;;
26311;SDS011;14019;56.964;24.016;2023-12-20T03:22:14;9.95;;;1.42;;
26311;SDS011;14019;56.964;24.016;2023-12-20T03:25:00;17.45;;;1.98;;
26311;SDS011;14019;56.964;24.016;2023-12-20T03:27:47;15.50;;;2.30;;
26311;SDS011;14019;56.964;24.016;2023-12-20T03:30:33;9.60;;;1.65;;
26311;SDS011;14019;56.964;24.016;2023-12-20T03:33:19;15.05;;;2.05;;
26311;SDS011;14019;56.964;24.016;2023-12-20T03:36:06;10.52;;;1.90;;
26311;SDS011;14019;56.964;24.016;2023-12-20T03:38:52;15.75;;;1.90;;
26311;SDS011;14019;56.964;24.016;2023-12-20T03:41:39;13.05;;;1.70;;
26311;SDS011;14019;56.964;24.016;2023-12-20T03:44:25;23.05;;;1.90;;
26311;SDS011;14019;56.964;24.016;2023-12-20T03:47:11;15.65;;;1.98;;
26311;SDS011;14019;56.964;24.016;2023-12-20T03:49:58;14.82;;;2.60;;
26311;SDS011;14019;56.964;24.016;2023-12-20T03:52:44;13.80;;;1.80;;
26311;SDS011;14019;56.964;24.016;2023-12-20T03:55:30;17.17;;;2.42;;
26311;SDS011;14019;56.964;24.016;2023-12-20T03:58:16;15.23;;;2.10;;
26311;SDS011;14019;56.964;24.016;2023-12-20T04:01:03;15.95;;;2.60;;
26311;SDS011;14019;56.964;24.016;2023-12-20T04:03:49;19.42;;;2.83;;
26311;SDS011;14019;56.964;24.016;2023-12-20T04:06:35;16.70;;;2.90;;
26311;SDS011;14019;56.964;24.016;2023-12-20T04:09:22;20.95;;;3.05;;
26311;SDS011;14019;56.964;24.016;2023-12-20T04:12:08;13.80;;;2.35;;
26311;SDS011;14019;56.964;24.016;2023-12-20T04:14:54;16.63;;;2.22;;
26311;SDS011;14019;56.964;24.016;2023-12-20T04:17:40;19.25;;;2.30;;
26311;SDS011;14019;56.964;24.016;2023-12-20T04:20:27;11.40;;;2.50;;
26311;SDS011;14019;56.964;24.016;2023-12-20T04:23:13;17.23;;;2.60;;
26311;SDS011;14019;56.964;24.016;2023-12-20T04:26:00;15.20;;;2.60;;
26311;SDS011;14019;56.964;24.016;2023-12-20T04:28:46;12.23;;;2.30;;
26311;SDS011;14019;56.964;24.016;2023-12-20T04:31:34;15.85;;;2.42;;
26311;SDS011;14019;56.964;24.016;2023-12-20T04:34:21;20.70;;;2.47;;
26311;SDS011;14019;56.964;24.016;2023-12-20T04:37:08;12.25;;;2.33;;
26311;SDS011;14019;56.964;24.016;2023-12-20T04:39:54;11.82;;;2.58;;
26311;SDS011;14019;56.964;24.016;2023-12-20T04:42:40;16.70;;;2.38;;
26311;SDS011;14019;56.964;24.016;2023-12-20T04:45:27;18.08;;;2.15;;
26311;SDS011;14019;56.964;24.016;2023-12-20T04:48:13;20.95;;;2.42;;
26311;SDS011;14019;56.964;24.016;2023-12-20T04:50:59;15.43;;;2.20;;
26311;SDS011;14019;56.964;24.016;2023-12-20T04:53:46;21.67;;;2.80;;
26311;SDS011;14019;56.964;24.016;2023-12-20T04:56:32;12.32;;;2.10;;
26311;SDS011;14019;56.964;24.016;2023-12-20T04:59:18;16.92;;;2.33;;
26311;SDS011;14019;56.964;24.016;2023-12-20T05:02:04;13.07;;;2.20;;
26311;SDS011;14019;56.964;24.016;2023-12-20T05:04:51;15.00;;;2.42;;
26311;SDS011;14019;56.964;24.016;2023-12-20T05:07:40;12.50;;;2.20;;
26311;SDS011;14019;56.964;24.016;2023-12-20T05:10:27;18.15;;;2.33;;
26311;SDS011;14019;56.964;24.016;2023-12-20T05:13:22;12.95;;;2.08;;
26311;SDS011;14019;56.964;24.016;2023-12-20T05:16:21;14.98;;;2.60;;
26311;SDS011;14019;56.964;24.016;2023-12-20T05:19:08;19.42;;;1.95;;
26311;SDS011;14019;56.964;24.016;2023-12-20T05:21:54;16.65;;;2.10;;
26311;SDS011;14019;56.964;24.016;2023-12-20T05:24:40;14.30;;;2.03;;
26311;SDS011;14019;56.964;24.016;2023-12-20T05:27:27;17.73;;;2.13;;
26311;SDS011;14019;56.964;24.016;2023-12-20T05:30:13;14.48;;;1.80;;
26311;SDS011;14019;56.964;24.016;2023-12-20T05:32:59;16.83;;;2.70;;
26311;SDS011;14019;56.964;24.016;2023-12-20T05:35:46;16.15;;;2.03;;
26311;SDS011;14019;56.964;24.016;2023-12-20T05:38:32;17.10;;;2.13;;
26311;SDS011;14019;56.964;24.016;2023-12-20T05:41:18;16.85;;;2.38;;
26311;SDS011;14019;56.964;24.016;2023-12-20T05:44:07;10.35;;;2.00;;
26311;SDS011;14019;56.964;24.016;2023-12-20T05:46:55;24.23;;;2.58;;
26311;SDS011;14019;56.964;24.016;2023-12-20T05:49:43;19.33;;;2.35;;
26311;SDS011;14019;56.964;24.016;2023-12-20T05:52:29;14.27;;;2.20;;
26311;SDS011;14019;56.964;24.016;2023-12-20T05:55:16;14.00;;;2.25;;
26311;SDS011;14019;56.964;24.016;2023-12-20T05:58:02;17.40;;;2.47;;
26311;SDS011;14019;56.964;24.016;2023-12-20T06:00:48;15.73;;;2.40;;
26311;SDS011;14019;56.964;24.016;2023-12-20T06:03:35;19.00;;;2.45;;
26311;SDS011;14019;56.964;24.016;2023-12-20T06:06:21;21.42;;;2.30;;
26311;SDS011;14019;56.964;24.016;2023-12-20T06:09:10;17.10;;;2.42;;
26311;SDS011;14019;56.964;24.016;2023-12-20T06:11:56;14.68;;;2.45;;
26311;SDS011;14019;56.964;24.016;2023-12-20T06:14:42;15.95;;;2.50;;
26311;SDS011;14019;56.964;24.016;2023-12-20T06:17:29;15.43;;;3.03;;
26311;SDS011;14019;56.964;24.016;2023-12-20T06:20:16;21.80;;;2.80;;
26311;SDS011;14019;56.964;24.016;2023-12-20T06:23:03;16.08;;;2.65;;
26311;SDS011;14019;56.964;24.016;2023-12-20T06:25:49;21.17;;;3.53;;
26311;SDS011;14019;56.964;24.016;2023-12-20T06:28:36;16.05;;;2.40;;
26311;SDS011;14019;56.964;24.016;2023-12-20T06:31:25;19.35;;;2.92;;
26311;SDS011;14019;56.964;24.016;2023-12-20T06:34:15;15.63;;;2.28;;
26311;SDS011;14019;56.964;24.016;2023-12-20T06:37:01;18.27;;;2.78;;
26311;SDS011;14019;56.964;24.016;2023-12-20T06:39:47;19.35;;;2.55;;
26311;SDS011;14019;56.964;24.016;2023-12-20T06:42:34;17.17;;;2.50;;
26311;SDS011;14019;56.964;24.016;2023-12-20T06:45:30;18.48;;;3.45;;
26311;SDS011;14019;56.964;24.016;2023-12-20T06:48:17;17.75;;;2.92;;
26311;SDS011;14019;56.964;24.016;2023-12-20T06:51:05;12.27;;;2.53;;
26311;SDS011;14019;56.964;24.016;2023-12-20T06:53:52;15.73;;;2.63;;
26311;SDS011;14019;56.964;24.016;2023-12-20T06:56:38;16.90;;;3.38;;
26311;SDS011;14019;56.964;24.016;2023-12-20T06:59:24;20.02;;;3.17;;
26311;SDS011;14019;56.964;24.016;2023-12-20T07:02:11;20.55;;;2.90;;
26311;SDS011;14019;56.964;24.016;2023-12-20T07:04:59;19.85;;;2.88;;
26311;SDS011;14019;56.964;24.016;2023-12-20T07:07:46;17.00;;;2.47;;
26311;SDS011;14019;56.964;24.016;2023-12-20T07:10:32;18.70;;;2.33;;
26311;SDS011;14019;56.964;24.016;2023-12-20T07:13:19;20.60;;;2.85;;
26311;SDS011;14019;56.964;24.016;2023-12-20T07:16:05;23.45;;;3.20;;
26311;SDS011;14019;56.964;24.016;2023-12-20T07:18:52;18.00;;;2.55;;
26311;SDS011;14019;56.964;24.016;2023-12-20T07:21:38;17.77;;;2.83;;
26311;SDS011;14019;56.964;24.016;2023-12-20T07:24:24;16.67;;;2.30;;
26311;SDS011;14019;56.964;24.016;2023-12-20T07:27:18;15.50;;;2.95;;
26311;SDS011;14019;56.964;24.016;2023-12-20T07:30:06;17.38;;;3.47;;
26311;SDS011;14019;56.964;24.016;2023-12-20T07:32:52;20.83;;;2.83;;
26311;SDS011;14019;56.964;24.016;2023-12-20T07:35:39;17.25;;;3.42;;
26311;SDS011;14019;56.964;24.016;2023-12-20T07:38:25;18.70;;;2.95;;
26311;SDS011;14019;56.964;24.016;2023-12-20T07:41:12;15.15;;;2.67;;
26311;SDS011;14019;56.964;24.016;2023-12-20T07:44:01;19.77;;;2.83;;
26311;SDS011;14019;56.964;24.016;2023-12-20T07:46:47;13.52;;;3.00;;
26311;SDS011;14019;56.964;24.016;2023-12-20T07:49:34;20.27;;;3.10;;
26311;SDS011;14019;56.964;24.016;2023-12-20T07:52:20;16.60;;;2.88;;
26311;SDS011;14019;56.964;24.016;2023-12-20T07:55:14;18.50;;;2.83;;
26311;SDS011;14019;56.964;24.016;2023-12-20T07:58:01;18.40;;;3.13;;
26311;SDS011;14019;56.964;24.016;2023-12-20T08:00:47;20.17;;;3.30;;
26311;SDS011;14019;56.964;24.016;2023-12-20T08:03:35;15.43;;;3.42;;
26311;SDS011;14019;56.964;24.016;2023-12-20T08:06:21;19.60;;;3.70;;
26311;SDS011;14019;56.964;24.016;2023-12-20T08:09:07;15.18;;;3.00;;
26311;SDS011;14019;56.964;24.016;2023-12-20T08:11:53;21.90;;;4.22;;
26311;SDS011;14019;56.964;24.016;2023-12-20T08:14:39;15.10;;;3.17;;
26311;SDS011;14019;56.964;24.016;2023-12-20T08:17:25;17.95;;;3.45;;
26311;SDS011;14019;56.964;24.016;2023-12-20T08:20:12;19.10;;;4.07;;
26311;SDS011;14019;56.964;24.016;2023-12-20T08:23:07;18.33;;;4.03;;
26311;SDS011;14019;56.964;24.016;2023-12-20T08:25:53;18.33;;;3.63;;
26311;SDS011;14019;56.964;24.016;2023-12-20T08:28:39;20.08;;;3.47;;
26311;SDS011;14019;56.964;24.016;2023-12-20T08:31:26;18.73;;;3.33;;
26311;SDS011;14019;56.964;24.016;2023-12-20T08:34:12;18.80;;;3.15;;
26311;SDS011;14019;56.964;24.016;2023-12-20T08:37:01;18.25;;;3.35;;
26311;SDS011;14019;56.964;24.016;2023-12-20T08:39:47;18.23;;;3.20;;
26311;SDS011;14019;56.964;24.016;2023-12-20T08:42:33;23.27;;;3.63;;
26311;SDS011;14019;56.964;24.016;2023-12-20T08:45:19;21.33;;;3.17;;
26311;SDS011;14019;56.964;24.016;2023-12-20T08:48:07;14.32;;;3.53;;
26311;SDS011;14019;56.964;24.016;2023-12-20T08:50:54;13.48;;;2.85;;
26311;SDS011;14019;56.964;24.016;2023-12-20T08:53:41;15.70;;;3.30;;
26311;SDS011;14019;56.964;24.016;2023-12-20T08:56:30;12.05;;;2.63;;
26311;SDS011;14019;56.964;24.016;2023-12-20T08:59:16;14.48;;;3.15;;
26311;SDS011;14019;56.964;24.016;2023-12-20T09:02:04;14.25;;;3.15;;
26311;SDS011;14019;56.964;24.016;2023-12-20T09:04:51;13.38;;;2.45;;
26311;SDS011;14019;56.964;24.016;2023-12-20T09:07:37;12.43;;;2.55;;
26311;SDS011;14019;56.964;24.016;2023-12-20T09:10:23;15.68;;;2.72;;
26311;SDS011;14019;56.964;24.016;2023-12-20T09:13:09;12.57;;;2.55;;
26311;SDS011;14019;56.964;24.016;2023-12-20T09:15:56;12.07;;;2.70;;
26311;SDS011;14019;56.964;24.016;2023-12-20T09:18:42;14.13;;;3.33;;
26311;SDS011;14019;56.964;24.016;2023-12-20T09:21:29;12.07;;;3.53;;
26311;SDS011;14019;56.964;24.016;2023-12-20T09:24:15;16.00;;;3.70;;
26311;SDS011;14019;56.964;24.016;2023-12-20T09:27:01;24.05;;;4.82;;
26311;SDS011;14019;56.964;24.016;2023-12-20T09:29:47;19.67;;;4.72;;
26311;SDS011;14019;56.964;24.016;2023-12-20T09:32:35;21.02;;;3.97;;
26311;SDS011;14019;56.964;24.016;2023-12-20T09:35:21;19.95;;;3.22;;
26311;SDS011;14019;56.964;24.016;2023-12-20T09:38:09;12.88;;;2.40;;
26311;SDS011;14019;56.964;24.016;2023-12-20T09:40:56;16.33;;;3.05;;
26311;SDS011;14019;56.964;24.016;2023-12-20T09:43:42;9.35;;;2.15;;
26311;SDS011;14019;56.964;24.016;2023-12-20T09:46:29;15.40;;;2.83;;
26311;SDS011;14019;56.964;24.016;2023-12-20T09:49:19;13.43;;;3.15;;
26311;SDS011;14019;56.964;24.016;2023-12-20T09:52:06;18.33;;;3.60;;
26311;SDS011;14019;56.964;24.016;2023-12-20T09:54:54;14.27;;;3.08;;
26311;SDS011;14019;56.964;24.016;2023-12-20T09:57:42;18.35;;;3.22;;
26311;SDS011;14019;56.964;24.016;2023-12-20T10:00:29;18.10;;;3.30;;
26311;SDS011;14019;56.964;24.016;2023-12-20T10:03:15;12.73;;;3.30;;
26311;SDS011;14019;56.964;24.016;2023-12-20T10:06:01;13.60;;;2.83;;
26311;SDS011;14019;56.964;24.016;2023-12-20T10:08:48;12.80;;;2.53;;
26311;SDS011;14019;56.964;24.016;2023-12-20T10:11:35;16.60;;;3.20;;
26311;SDS011;14019;56.964;24.016;2023-12-20T10:14:22;14.15;;;3.40;;
26311;SDS011;14019;56.964;24.016;2023-12-20T10:17:09;18.38;;;3.40;;
26311;SDS011;14019;56.964;24.016;2023-12-20T10:19:55;14.93;;;3.08;;
26311;SDS011;14019;56.964;24.016;2023-12-20T10:22:42;16.67;;;3.00;;
26311;SDS011;14019;56.964;24.016;2023-12-20T10:26:03;13.48;;;3.33;;
26311;SDS011;14019;56.964;24.016;2023-12-20T10:29:11;11.13;;;2.47;;
26311;SDS011;14019;56.964;24.016;2023-12-20T10:32:26;11.43;;;2.80;;
26311;SDS011;14019;56.964;24.016;2023-12-20T10:35:50;14.30;;;3.25;;
26311;SDS011;14019;56.964;24.016;2023-12-20T10:38:51;14.65;;;2.70;;
26311;SDS011;14019;56.964;24.016;2023-12-20T10:41:38;13.85;;;3.00;;
26311;SDS011;14019;56.964;24.016;2023-12-20T10:44:30;14.35;;;2.63;;
26311;SDS011;14019;56.964;24.016;2023-12-20T10:47:18;13.60;;;2.70;;
26311;SDS011;14019;56.964;24.016;2023-12-20T10:50:10;13.18;;;2.80;;
26311;SDS011;14019;56.964;24.016;2023-12-20T10:53:00;10.23;;;2.70;;
26311;SDS011;14019;56.964;24.016;2023-12-20T10:55:47;10.98;;;2.67;;
26311;SDS011;14019;56.964;24.016;2023-12-20T10:58:37;8.25;;;2.13;;
26311;SDS011;14019;56.964;24.016;2023-12-20T11:01:53;7.85;;;2.10;;
26311;SDS011;14019;56.964;24.016;2023-12-20T11:05:01;9.52;;;2.33;;
26311;SDS011;14019;56.964;24.016;2023-12-20T11:07:58;10.18;;;2.38;;
26311;SDS011;14019;56.964;24.016;2023-12-20T11:11:07;17.05;;;2.85;;
26311;SDS011;14019;56.964;24.016;2023-12-20T11:14:02;11.93;;;2.30;;
26311;SDS011;14019;56.964;24.016;2023-12-20T11:17:04;13.32;;;2.40;;
26311;SDS011;14019;56.964;24.016;2023-12-20T11:22:52;9.90;;;2.30;;
26311;SDS011;14019;56.964;24.016;2023-12-20T11:25:57;11.27;;;2.13;;
26311;SDS011;14019;56.964;24.016;2023-12-20T11:35:20;12.90;;;2.42;;
26311;SDS011;14019;56.964;24.016;2023-12-20T11:41:18;15.57;;;5.25;;
26311;SDS011;14019;56.964;24.016;2023-12-20T11:44:09;22.13;;;7.30;;
26311;SDS011;14019;56.964;24.016;2023-12-20T11:47:03;21.17;;;5.82;;
26311;SDS011;14019;56.964;24.016;2023-12-20T11:49:51;17.73;;;5.35;;
26311;SDS011;14019;56.964;24.016;2023-12-20T11:52:43;13.27;;;3.50;;
26311;SDS011;14019;56.964;24.016;2023-12-20T11:55:39;9.10;;;2.42;;
26311;SDS011;14019;56.964;24.016;2023-12-20T11:58:32;9.07;;;2.60;;
26311;SDS011;14019;56.964;24.016;2023-12-20T12:01:22;10.15;;;2.40;;
26311;SDS011;14019;56.964;24.016;2023-12-20T12:04:13;13.27;;;2.40;;
26311;SDS011;14019;56.964;24.016;2023-12-20T12:07:26;9.30;;;2.40;;
26311;SDS011;14019;56.964;24.016;2023-12-20T12:10:13;12.88;;;2.42;;
26311;SDS011;14019;56.964;24.016;2023-12-20T12:12:59;12.00;;;2.80;;
26311;SDS011;14019;56.964;24.016;2023-12-20T12:15:46;14.02;;;2.50;;
26311;SDS011;14019;56.964;24.016;2023-12-20T12:21:42;9.65;;;2.35;;
26311;SDS011;14019;56.964;24.016;2023-12-20T12:24:36;7.05;;;1.60;;
26311;SDS011;14019;56.964;24.016;2023-12-20T12:33:40;5.35;;;1.90;;
26311;SDS011;14019;56.964;24.016;2023-12-20T12:36:31;11.60;;;2.67;;
26311;SDS011;14019;56.964;24.016;2023-12-20T12:39:23;11.82;;;2.47;;
26311;SDS011;14019;56.964;24.016;2023-12-20T12:45:26;12.18;;;2.38;;
26311;SDS011;14019;56.964;24.016;2023-12-20T12:48:12;17.42;;;2.85;;
26311;SDS011;14019;56.964;24.016;2023-12-20T12:54:19;14.52;;;3.50;;
26311;SDS011;14019;56.964;24.016;2023-12-20T12:57:07;11.98;;;3.58;;
26311;SDS011;14019;56.964;24.016;2023-12-20T12:59:58;14.88;;;3.47;;
26311;SDS011;14019;56.964;24.016;2023-12-20T13:03:29;14.90;;;3.83;;
26311;SDS011;14019;56.964;24.016;2023-12-20T13:06:25;12.82;;;3.42;;
26311;SDS011;14019;56.964;24.016;2023-12-20T13:09:12;14.18;;;3.50;;
26311;SDS011;14019;56.964;24.016;2023-12-20T13:12:26;20.92;;;4.72;;
26311;SDS011;14019;56.964;24.016;2023-12-20T13:15:12;16.30;;;3.78;;
26311;SDS011;14019;56.964;24.016;2023-12-20T13:18:07;17.90;;;3.60;;
26311;SDS011;14019;56.964;24.016;2023-12-20T13:20:56;15.63;;;3.50;;
26311;SDS011;14019;56.964;24.016;2023-12-20T13:23:52;12.98;;;3.67;;
26311;SDS011;14019;56.964;24.016;2023-12-20T13:26:41;13.20;;;3.58;;
26311;SDS011;14019;56.964;24.016;2023-12-20T13:29:27;14.90;;;3.72;;
26311;SDS011;14019;56.964;24.016;2023-12-20T13:32:21;14.63;;;3.45;;
26311;SDS011;14019;56.964;24.016;2023-12-20T13:35:21;15.40;;;3.47;;
26311;SDS011;14019;56.964;24.016;2023-12-20T13:38:08;10.02;;;2.80;;
26311;SDS011;14019;56.964;24.016;2023-12-20T13:40:54;14.30;;;2.85;;
26311;SDS011;14019;56.964;24.016;2023-12-20T13:43:40;12.63;;;3.28;;
26311;SDS011;14019;56.964;24.016;2023-12-20T13:46:28;11.45;;;3.35;;
26311;SDS011;14019;56.964;24.016;2023-12-20T13:49:20;8.23;;;2.83;;
26311;SDS011;14019;56.964;24.016;2023-12-20T13:55:10;10.43;;;2.95;;
26311;SDS011;14019;56.964;24.016;2023-12-20T13:57:56;9.60;;;3.15;;
26311;SDS011;14019;56.964;24.016;2023-12-20T14:00:49;11.05;;;3.75;;
26311;SDS011;14019;56.964;24.016;2023-12-20T14:07:26;14.48;;;3.90;;
26311;SDS011;14019;56.964;24.016;2023-12-20T14:10:16;16.27;;;3.45;;
26311;SDS011;14019;56.964;24.016;2023-12-20T14:15:57;12.40;;;3.30;;
26311;SDS011;14019;56.964;24.016;2023-12-20T14:18:46;14.70;;;3.75;;
26311;SDS011;14019;56.964;24.016;2023-12-20T14:22:02;12.10;;;3.17;;
26311;SDS011;14019;56.964;24.016;2023-12-20T14:24:50;18.33;;;3.90;;
26311;SDS011;14019;56.964;24.016;2023-12-20T14:27:39;16.73;;;3.40;;
26311;SDS011;14019;56.964;24.016;2023-12-20T14:30:27;16.52;;;3.22;;
26311;SDS011;14019;56.964;24.016;2023-12-20T14:33:50;16.73;;;3.15;;
26311;SDS011;14019;56.964;24.016;2023-12-20T14:37:19;14.15;;;3.17;;
26311;SDS011;14019;56.964;24.016;2023-12-20T14:40:09;15.48;;;3.30;;
26311;SDS011;14019;56.964;24.016;2023-12-20T14:43:02;11.93;;;3.67;;
26311;SDS011;14019;56.964;24.016;2023-12-20T14:52:28;16.45;;;3.17;;
26311;SDS011;14019;56.964;24.016;2023-12-20T14:55:14;15.13;;;3.00;;
26311;SDS011;14019;56.964;24.016;2023-12-20T14:58:23;11.60;;;2.80;;
26311;SDS011;14019;56.964;24.016;2023-12-20T15:05:02;14.60;;;3.08;;
26311;SDS011;14019;56.964;24.016;2023-12-20T15:07:49;12.05;;;3.30;;
26311;SDS011;14019;56.964;24.016;2023-12-20T15:10:38;11.63;;;3.47;;
26311;SDS011;14019;56.964;24.016;2023-12-20T15:14:20;15.13;;;3.63;;
26311;SDS011;14019;56.964;24.016;2023-12-20T15:17:26;19.02;;;4.25;;
26311;SDS011;14019;56.964;24.016;2023-12-20T15:20:13;14.30;;;3.47;;
26311;SDS011;14019;56.964;24.016;2023-12-20T15:23:00;16.17;;;4.07;;
26311;SDS011;14019;56.964;24.016;2023-12-20T15:25:51;13.13;;;3.60;;
26311;SDS011;14019;56.964;24.016;2023-12-20T15:28:39;19.02;;;3.90;;
26311;SDS011;14019;56.964;24.016;2023-12-20T15:31:34;15.15;;;4.20;;
26311;SDS011;14019;56.964;24.016;2023-12-20T15:34:21;19.70;;;4.10;;
26311;SDS011;14019;56.964;24.016;2023-12-20T15:37:16;15.40;;;3.67;;
26311;SDS011;14019;56.964;24.016;2023-12-20T15:40:13;16.58;;;3.95;;
26311;SDS011;14019;56.964;24.016;2023-12-20T15:43:24;17.42;;;4.15;;
26311;SDS011;14019;56.964;24.016;2023-12-20T15:46:14;14.73;;;3.50;;
26311;SDS011;14019;56.964;24.016;2023-12-20T15:49:01;17.48;;;4.03;;
26311;SDS011;14019;56.964;24.016;2023-12-20T15:51:57;15.02;;;3.63;;
26311;SDS011;14019;56.964;24.016;2023-12-20T15:54:44;14.63;;;3.92;;
26311;SDS011;14019;56.964;24.016;2023-12-20T15:57:32;13.70;;;3.95;;
26311;SDS011;14019;56.964;24.016;2023-12-20T16:00:33;20.55;;;3.90;;
26311;SDS011;14019;56.964;24.016;2023-12-20T16:04:20;18.33;;;3.95;;
26311;SDS011;14019;56.964;24.016;2023-12-20T16:07:07;18.02;;;4.30;;
26311;SDS011;14019;56.964;24.016;2023-12-20T16:09:53;20.20;;;4.63;;
26311;SDS011;14019;56.964;24.016;2023-12-20T16:12:47;15.02;;;3.90;;
26311;SDS011;14019;56.964;24.016;2023-12-20T16:15:56;18.70;;;4.43;;
26311;SDS011;14019;56.964;24.016;2023-12-20T16:18:43;15.70;;;4.03;;
26311;SDS011;14019;56.964;24.016;2023-12-20T16:21:29;13.80;;;4.05;;
26311;SDS011;14019;56.964;24.016;2023-12-20T16:24:16;16.90;;;4.20;;
26311;SDS011;14019;56.964;24.016;2023-12-20T16:27:02;18.25;;;3.70;;
26311;SDS011;14019;56.964;24.016;2023-12-20T16:29:48;20.30;;;3.72;;
26311;SDS011;14019;56.964;24.016;2023-12-20T16:32:35;11.13;;;3.42;;
26311;SDS011;14019;56.964;24.016;2023-12-20T16:35:21;16.48;;;3.70;;
26311;SDS011;14019;56.964;24.016;2023-12-20T16:38:11;16.38;;;3.47;;
26311;SDS011;14019;56.964;24.016;2023-12-20T16:40:57;14.90;;;3.83;;
26311;SDS011;14019;56.964;24.016;2023-12-20T16:43:44;16.02;;;3.17;;
26311;SDS011;14019;56.964;24.016;2023-12-20T16:46:31;12.32;;;3.35;;
26311;SDS011;14019;56.964;24.016;2023-12-20T16:49:17;14.75;;;3.92;;
26311;SDS011;14019;56.964;24.016;2023-12-20T16:52:03;10.55;;;2.95;;
26311;SDS011;14019;56.964;24.016;2023-12-20T16:54:50;17.30;;;3.40;;
26311;SDS011;14019;56.964;24.016;2023-12-20T16:57:36;14.07;;;3.53;;
26311;SDS011;14019;56.964;24.016;2023-12-20T17:00:24;11.13;;;3.00;;
26311;SDS011;14019;56.964;24.016;2023-12-20T17:03:11;12.32;;;3.17;;
26311;SDS011;14019;56.964;24.016;2023-12-20T17:06:09;7.05;;;2.50;;
26311;SDS011;14019;56.964;24.016;2023-12-20T17:08:55;6.47;;;2.20;;
26311;SDS011;14019;56.964;24.016;2023-12-20T17:11:41;4.40;;;2.13;;
26311;SDS011;14019;56.964;24.016;2023-12-20T17:14:28;6.82;;;2.50;;
26311;SDS011;14019;56.964;24.016;2023-12-20T17:17:14;6.68;;;2.45;;
26311;SDS011;14019;56.964;24.016;2023-12-20T17:20:00;8.70;;;2.40;;
26311;SDS011;14019;56.964;24.016;2023-12-20T17:22:50;9.25;;;2.35;;